createdAt,value
2023-04-15T00:02:26.468Z,49.70
2023-04-15T00:07:29.571Z,55.63
2023-04-15T00:12:31.406Z,53.70
2023-04-15T00:17:33.254Z,56.60
2023-04-15T00:22:35.412Z,57.87
2023-04-15T00:27:37.854Z,62.60
2023-04-15T00:32:39.631Z,64.70
2023-04-15T00:37:41.551Z,56.70
2023-04-15T00:42:43.331Z,60.37
2023-04-15T00:47:45.693Z,70.83
2023-04-15T00:52:47.466Z,63.93
2023-04-15T00:57:49.895Z,60.10
2023-04-15T01:02:51.766Z,73.57
2023-04-15T01:07:53.564Z,71.50
2023-04-15T01:12:55.600Z,71.17
2023-04-15T01:17:59.874Z,73.87
2023-04-15T01:23:02.173Z,79.57
2023-04-15T01:28:04.940Z,82.63
2023-04-15T01:33:07.293Z,80.37
2023-04-15T01:38:11.335Z,76.53
2023-04-15T01:43:13.109Z,78.30
2023-04-15T01:48:14.894Z,76.27
2023-04-15T01:53:16.800Z,79.67
2023-04-15T01:58:19.548Z,81.93
2023-04-15T02:03:21.755Z,81.87
2023-04-15T02:08:23.667Z,81.40
2023-04-15T02:13:25.435Z,85.00
2023-04-15T02:18:27.394Z,91.87
2023-04-15T02:23:29.133Z,89.90
2023-04-15T02:28:30.923Z,83.60
2023-04-15T02:33:32.866Z,93.40
2023-04-15T02:38:34.661Z,82.57
2023-04-15T02:43:36.475Z,88.23
2023-04-15T02:48:38.295Z,80.37
2023-04-15T02:53:41.489Z,80.57
2023-04-15T02:58:50.486Z,84.37
2023-04-15T03:03:52.330Z,78.97
2023-04-15T03:08:54.118Z,89.03
2023-04-15T03:13:56.034Z,77.93
2023-04-15T03:18:57.793Z,82.27
2023-04-15T03:23:59.547Z,73.10
2023-04-15T03:29:01.762Z,80.00
2023-04-15T03:34:03.641Z,79.90
2023-04-15T03:39:05.506Z,79.50
2023-04-15T03:44:07.316Z,76.17
2023-04-15T03:49:09.198Z,71.47
2023-04-15T03:54:11.719Z,71.00
2023-04-15T03:59:13.528Z,73.17
2023-04-15T04:04:15.621Z,71.83
2023-04-15T04:09:17.409Z,69.07
2023-04-15T04:14:19.118Z,66.70
2023-04-15T04:19:20.917Z,59.00
2023-04-15T04:24:22.837Z,64.93
2023-04-15T04:29:25.719Z,59.23
2023-04-15T04:34:27.507Z,59.97
2023-04-15T04:39:29.335Z,54.57
2023-04-15T04:44:31.105Z,49.63
2023-04-15T04:49:33.068Z,59.00
2023-04-15T04:54:34.934Z,61.40
2023-04-15T04:59:36.840Z,64.80
2023-04-15T05:04:38.661Z,61.30
2023-04-15T05:09:40.876Z,57.73
2023-04-15T05:14:42.993Z,53.03
2023-04-15T05:19:44.808Z,53.23
2023-04-15T05:24:46.558Z,48.37
2023-04-15T05:29:48.664Z,45.30
2023-04-15T05:34:50.545Z,42.77
2023-04-15T05:39:52.482Z,41.17
2023-04-15T05:44:54.330Z,38.13
2023-04-15T05:49:56.338Z,37.60
2023-04-15T05:54:58.334Z,33.60
2023-04-15T06:00:00.108Z,36.10
2023-04-15T06:05:02.318Z,37.73
2023-04-15T06:10:05.949Z,37.80
2023-04-15T06:15:10.357Z,39.03
2023-04-15T06:20:12.855Z,37.10
2023-04-15T06:25:14.735Z,28.90
2023-04-15T06:30:16.976Z,28.00
2023-04-15T06:35:19.000Z,32.67
2023-04-15T06:40:20.926Z,21.67
2023-04-15T06:45:22.817Z,23.60
2023-04-15T06:50:24.797Z,18.73
2023-04-15T06:55:26.638Z,20.37
2023-04-15T07:00:28.757Z,16.73
2023-04-15T07:05:32.378Z,18.67
2023-04-15T07:10:34.818Z,22.20
2023-04-15T07:15:36.686Z,22.50
2023-04-15T07:20:39.073Z,14.40
2023-04-15T07:25:41.109Z,13.57
2023-04-15T07:30:42.971Z,13.80
2023-04-15T07:35:45.269Z,19.23
2023-04-15T07:40:48.347Z,15.80
2023-04-15T07:45:50.195Z,17.83
2023-04-15T07:50:51.961Z,13.50
2023-04-15T07:55:54.138Z,15.50
2023-04-15T08:00:56.012Z,16.40
2023-04-15T08:05:58.218Z,17.07
2023-04-15T08:11:00.160Z,16.97
2023-04-15T08:16:27.813Z,16.70
2023-04-15T08:21:30.911Z,18.23
2023-04-15T08:26:32.848Z,18.07
2023-04-15T08:31:35.032Z,17.47
2023-04-15T08:36:36.811Z,17.30
2023-04-15T08:42:12.650Z,18.50
2023-04-15T08:47:20.455Z,19.40
2023-04-15T08:52:22.597Z,17.33
2023-04-15T08:57:28.826Z,19.50
2023-04-15T09:02:31.799Z,19.17
2023-04-15T09:07:36.762Z,19.83
2023-04-15T09:12:38.649Z,18.47
2023-04-15T09:17:45.664Z,17.83
2023-04-15T09:22:50.463Z,14.13
2023-04-15T09:28:01.750Z,16.90
2023-04-15T09:33:09.002Z,19.10
2023-04-15T09:38:11.238Z,17.80
2023-04-15T09:43:13.608Z,15.53
2023-04-15T09:48:33.602Z,18.80
2023-04-15T09:53:38.336Z,20.90
2023-04-15T09:58:41.605Z,14.50
2023-04-15T10:03:45.701Z,16.57
2023-04-15T10:08:48.324Z,16.10
2023-04-15T10:13:52.245Z,12.80
2023-04-15T10:19:01.294Z,15.47
2023-04-15T10:24:04.938Z,15.83
2023-04-15T10:29:08.170Z,15.57
2023-04-15T10:34:11.246Z,16.80
2023-04-15T10:39:34.868Z,15.37
2023-04-15T10:44:41.828Z,16.30
2023-04-15T10:49:59.152Z,15.03
2023-04-15T10:55:20.855Z,14.90
2023-04-15T11:00:29.532Z,16.27
2023-04-15T11:05:51.099Z,16.57
2023-04-15T11:10:54.252Z,14.13
2023-04-15T11:15:58.625Z,15.03
2023-04-15T11:21:07.496Z,16.13
2023-04-15T11:26:12.344Z,14.43
2023-04-15T11:31:19.847Z,20.70
2023-04-15T11:36:23.913Z,15.93
2023-04-15T11:41:26.047Z,13.80
2023-04-15T11:46:31.877Z,14.93
2023-04-15T11:51:35.969Z,16.30
2023-04-15T11:56:38.238Z,13.47
2023-04-15T12:01:43.777Z,16.27
2023-04-15T12:06:46.422Z,14.97
2023-04-15T12:11:55.281Z,15.90
2023-04-15T12:17:07.019Z,13.70
2023-04-15T12:22:16.303Z,14.80
2023-04-15T12:27:18.170Z,16.77
2023-04-15T12:32:20.978Z,16.43
2023-04-15T12:37:23.185Z,15.25
2023-04-15T12:42:25.151Z,16.30
2023-04-15T12:47:27.011Z,12.93
2023-04-15T12:52:28.779Z,14.00
2023-04-15T12:57:30.619Z,15.23
2023-04-15T13:02:32.579Z,14.67
2023-04-15T13:07:34.473Z,22.85
2023-04-15T13:12:37.064Z,18.60
2023-04-15T13:17:39.010Z,20.77
2023-04-15T13:22:41.354Z,15.83
2023-04-15T13:27:43.625Z,16.20
2023-04-15T13:32:45.624Z,18.42
2023-04-15T13:37:47.976Z,12.53
2023-04-15T13:42:51.967Z,14.10
2023-04-15T13:47:54.653Z,13.60
2023-04-15T13:52:56.758Z,12.23
2023-04-15T13:57:58.841Z,20.55
2023-04-15T14:03:00.755Z,13.50
2023-04-15T14:08:02.795Z,16.80
2023-04-15T14:13:04.597Z,12.30
2023-04-15T14:18:06.554Z,17.80
2023-04-15T14:23:08.506Z,19.83
2023-04-15T14:28:10.706Z,14.70
2023-04-15T14:33:12.945Z,17.27
2023-04-15T14:38:14.752Z,14.03
2023-04-15T14:43:17.045Z,13.07
2023-04-15T14:48:18.846Z,12.47
2023-04-15T14:53:20.658Z,13.50
2023-04-15T14:58:22.479Z,10.70
2023-04-15T15:03:24.377Z,10.80
2023-04-15T15:08:26.313Z,14.30
2023-04-15T15:13:28.139Z,13.30
2023-04-15T15:18:30.490Z,11.77
2023-04-15T15:23:32.326Z,13.07
2023-04-15T15:28:34.901Z,12.10
2023-04-15T15:33:36.646Z,12.07
2023-04-15T15:38:40.099Z,12.40
2023-04-15T15:43:41.819Z,13.50
2023-04-15T15:48:44.489Z,11.93
2023-04-15T15:53:46.489Z,15.63
2023-04-15T15:58:48.229Z,11.03
2023-04-15T16:03:50.167Z,11.67
2023-04-15T16:08:51.963Z,8.57
2023-04-15T16:13:53.986Z,10.00
2023-04-15T16:18:57.473Z,9.10
2023-04-15T16:23:59.290Z,10.47
2023-04-15T16:29:01.849Z,10.70
2023-04-15T16:34:03.780Z,8.90
2023-04-15T16:39:05.909Z,8.70
2023-04-15T16:44:08.983Z,9.70
2023-04-15T16:49:11.430Z,9.60
2023-04-15T16:54:13.418Z,9.03
2023-04-15T16:59:15.205Z,9.47
2023-04-15T17:04:17.057Z,10.43
2023-04-15T17:09:18.885Z,10.77
2023-04-15T17:14:20.666Z,12.13
2023-04-15T17:19:22.436Z,12.00
2023-04-15T17:24:24.716Z,11.23
2023-04-15T17:29:26.986Z,10.87
2023-04-15T17:34:49.743Z,14.40
2023-04-15T17:39:50.951Z,10.17
2023-04-15T17:44:55.383Z,12.97
2023-04-15T17:49:57.188Z,12.53
2023-04-15T17:54:58.996Z,12.27
2023-04-15T18:00:00.863Z,14.83
2023-04-15T18:05:02.838Z,15.10
2023-04-15T18:10:07.044Z,16.67
2023-04-15T18:15:10.093Z,14.57
2023-04-15T18:20:12.761Z,12.73
2023-04-15T18:25:14.671Z,11.10
2023-04-15T18:30:16.583Z,11.50
2023-04-15T18:35:18.626Z,11.03
2023-04-15T18:40:20.449Z,14.93
2023-04-15T18:45:22.236Z,16.33
2023-04-15T18:50:24.014Z,17.60
2023-04-15T18:55:25.926Z,15.73
2023-04-15T19:00:27.843Z,15.97
2023-04-15T19:05:30.703Z,16.80
2023-04-15T19:10:34.620Z,15.93
2023-04-15T19:15:36.392Z,14.20
2023-04-15T19:20:40.005Z,17.20
2023-04-15T19:25:42.230Z,15.73
2023-04-15T19:30:44.033Z,19.97
2023-04-15T19:35:49.707Z,19.10
2023-04-15T19:40:51.441Z,19.53
2023-04-15T19:45:54.685Z,21.70
2023-04-15T19:50:57.854Z,22.70
2023-04-15T19:55:59.629Z,23.87
2023-04-15T20:01:02.249Z,21.20
2023-04-15T20:06:04.054Z,23.80
2023-04-15T20:11:05.889Z,25.23
2023-04-15T20:16:07.973Z,20.50
2023-04-15T20:21:09.900Z,19.10
2023-04-15T20:26:11.651Z,19.97
2023-04-15T20:31:13.491Z,19.67
2023-04-15T20:36:15.367Z,20.00
2023-04-15T20:41:17.115Z,18.67
2023-04-15T20:46:21.385Z,18.33
2023-04-15T20:51:23.604Z,18.83
2023-04-15T20:56:25.364Z,19.13
2023-04-15T21:01:27.695Z,18.23
2023-04-15T21:06:29.457Z,21.77
2023-04-15T21:11:53.203Z,21.73
2023-04-15T21:16:57.718Z,15.50
2023-04-15T21:21:59.950Z,23.90
2023-04-15T21:27:02.045Z,31.30
2023-04-15T21:32:03.960Z,24.17
2023-04-15T21:37:05.749Z,25.10
2023-04-15T21:42:07.594Z,28.50
2023-04-15T21:47:09.670Z,22.03
2023-04-15T21:52:11.619Z,22.27
2023-04-15T21:57:13.787Z,21.57
2023-04-15T22:02:15.775Z,21.67
2023-04-15T22:07:17.682Z,21.60
2023-04-15T22:12:19.453Z,20.87
2023-04-15T22:17:21.408Z,21.10
2023-04-15T22:22:26.683Z,23.67
2023-04-15T22:27:43.351Z,22.80
2023-04-15T22:32:45.257Z,22.33
2023-04-15T22:37:48.153Z,26.77
2023-04-15T22:42:50.232Z,24.00
2023-04-15T22:47:52.157Z,24.60
2023-04-15T22:52:53.985Z,27.80
2023-04-15T22:57:56.346Z,26.70
2023-04-15T23:02:58.303Z,27.50
2023-04-15T23:08:00.276Z,30.47
2023-04-15T23:13:02.082Z,31.47
2023-04-15T23:18:04.033Z,31.13
2023-04-15T23:23:05.936Z,33.50
2023-04-15T23:28:07.984Z,32.63
2023-04-15T23:33:09.833Z,33.83
2023-04-15T23:38:11.600Z,29.87
2023-04-15T23:43:13.818Z,32.87
2023-04-15T23:48:15.877Z,37.47
2023-04-15T23:53:17.748Z,35.53
2023-04-15T23:58:19.512Z,33.33
